Time;durP1;ratioP1;P1;durP2;ratioP2;P2;SDS_P1;SDS_P2;PMS_P1;PMS_P2;Temp;Humidity;BMP_temperature;BMP_pressure;BME280_temperature;BME280_humidity;BME280_pressure;Samples;Min_cycle;Max_cycle;Signal;HPM_P1;HPM_P2
2021/12/16 00:01:42;;;;;;;2.08;1.88;;;21.90;36.70;;;;;;5105871;27;47085;-27
2021/12/16 00:08:57;;;;;;;1.73;1.63;;;21.90;36.80;;;;;;5105831;27;46911;-28
2021/12/16 00:19:24;;;;;;;1.75;1.63;;;21.90;36.80;;;;;;5108871;27;47051;-28
2021/12/16 00:20:19;;;;;;;2.10;1.63;;;21.90;36.80;;;;;;5105582;27;46896;-28
2021/12/16 00:31:20;;;;;;;1.67;1.58;;;21.80;36.70;;;;;;5106347;27;46828;-27
2021/12/16 00:33:58;;;;;;;1.80;1.70;;;21.90;36.70;;;;;;5108267;27;47213;-27
2021/12/16 00:36:25;;;;;;;1.63;1.50;;;21.90;36.70;;;;;;5107402;27;48793;-27
2021/12/16 00:38:54;;;;;;;1.67;1.58;;;21.90;36.70;;;;;;5108041;27;46869;-28
2021/12/16 00:41:20;;;;;;;1.45;1.35;;;21.80;36.70;;;;;;5107963;27;46888;-27
2021/12/16 00:43:52;;;;;;;1.70;1.60;;;21.80;36.70;;;;;;5108321;27;46926;-28
2021/12/16 00:46:33;;;;;;;1.50;1.40;;;21.80;36.70;;;;;;5107558;27;49190;-28
2021/12/16 00:49:17;;;;;;;1.60;1.50;;;21.80;36.70;;;;;;5107936;27;47017;-28
2021/12/16 00:54:30;;;;;;;1.58;1.30;;;21.80;36.70;;;;;;5105488;27;46882;-27
2021/12/16 00:57:01;;;;;;;1.42;1.33;;;21.80;36.70;;;;;;5107364;27;48172;-27
2021/12/16 00:59:33;;;;;;;1.65;1.55;;;21.80;36.70;;;;;;5108017;27;46912;-27
2021/12/16 01:02:11;;;;;;;1.70;1.60;;;21.80;37.30;;;;;;5107451;27;47135;-27
2021/12/16 01:35:14;;;;;;;1.92;1.80;;;21.80;36.70;;;;;;5104351;27;46868;-28
2021/12/16 01:41:09;;;;;;;1.45;1.35;;;21.80;36.70;;;;;;5041484;28;48090;-27
2021/12/16 01:52:01;;;;;;;1.30;1.20;;;21.70;36.70;;;;;;5106316;27;46886;-28
2021/12/16 01:54:50;;;;;;;1.23;1.23;;;21.80;36.70;;;;;;5106829;27;47036;-27
2021/12/16 01:57:22;;;;;;;1.40;1.30;;;21.80;36.70;;;;;;5106831;27;46852;-28
2021/12/16 01:59:58;;;;;;;1.50;1.33;;;21.80;36.70;;;;;;5107080;27;46886;-27
2021/12/16 02:02:35;;;;;;;1.60;1.50;;;21.80;36.70;;;;;;5106635;27;48854;-27
2021/12/16 02:05:21;;;;;;;1.77;1.50;;;21.80;36.70;;;;;;5106635;27;47032;-28
2021/12/16 02:10:37;;;;;;;1.40;1.30;;;21.80;36.60;;;;;;5095213;27;47279;-28
2021/12/16 02:13:18;;;;;;;1.52;1.42;;;21.80;36.60;;;;;;5106262;27;47890;-28
2021/12/16 02:27:28;;;;;;;1.25;1.15;;;21.80;36.50;;;;;;5085440;27;46937;-28
2021/12/16 02:30:19;;;;;;;1.30;1.20;;;21.80;36.60;;;;;;5106303;27;46923;-28
2021/12/16 02:32:52;;;;;;;1.27;1.17;;;21.80;36.60;;;;;;5106280;27;47138;-28
2021/12/16 02:35:30;;;;;;;1.17;1.08;;;21.80;36.50;;;;;;5106212;27;47843;-28
2021/12/16 02:38:00;;;;;;;1.15;1.15;;;21.80;36.50;;;;;;5106295;27;46847;-28
2021/12/16 02:40:27;;;;;;;1.23;1.13;;;21.80;36.50;;;;;;5106017;27;46899;-27
2021/12/16 02:42:57;;;;;;;1.10;1.00;;;21.70;36.50;;;;;;5106532;27;46877;-28
2021/12/16 02:48:32;;;;;;;1.30;1.20;;;21.70;37.10;;;;;;5046989;27;47022;-27
2021/12/16 02:51:00;;;;;;;1.10;1.10;;;21.70;36.50;;;;;;5106126;27;46985;-28
2021/12/16 02:53:29;;;;;;;1.17;1.10;;;21.70;36.50;;;;;;5106290;27;46880;-28
2021/12/16 02:55:55;;;;;;;0.93;0.93;;;21.70;36.50;;;;;;5105354;27;46845;-27
2021/12/16 02:58:22;;;;;;;1.00;1.00;;;21.70;36.50;;;;;;5106752;27;46909;-27
2021/12/16 03:00:51;;;;;;;1.13;1.10;;;21.70;36.50;;;;;;5109793;27;46990;-27
2021/12/16 03:03:18;;;;;;;1.17;1.13;;;21.70;36.50;;;;;;5109558;27;47241;-27
2021/12/16 03:05:45;;;;;;;1.40;1.30;;;21.70;36.50;;;;;;5109295;27;48307;-27
2021/12/16 03:08:11;;;;;;;1.23;1.15;;;21.70;36.40;;;;;;5109267;27;46914;-27
2021/12/16 03:13:26;;;;;;;1.60;1.23;;;21.70;36.40;;;;;;5106548;27;46988;-28
2021/12/16 03:16:05;;;;;;;1.00;1.00;;;21.70;36.50;;;;;;5109158;27;49056;-28
2021/12/16 03:18:39;;;;;;;1.00;1.00;;;21.70;36.50;;;;;;5109163;27;47322;-27
2021/12/16 03:21:15;;;;;;;1.25;1.15;;;21.70;36.40;;;;;;5109013;27;46822;-28
2021/12/16 03:23:54;;;;;;;0.93;0.93;;;21.70;36.40;;;;;;5109343;27;47138;-28
2021/12/16 03:27:06;;;;;;;1.13;1.10;;;21.70;36.40;;;;;;5109080;27;46784;-28
2021/12/16 03:29:53;;;;;;;1.17;1.17;;;21.70;36.40;;;;;;5108664;27;46959;-28
2021/12/16 03:32:40;;;;;;;1.23;1.13;;;21.70;36.40;;;;;;5109328;27;46795;-27
2021/12/16 03:35:26;;;;;;;1.33;1.23;;;21.70;36.30;;;;;;5109226;27;47034;-27
2021/12/16 03:37:53;;;;;;;1.20;1.10;;;21.70;36.30;;;;;;5109058;27;49055;-27
2021/12/16 03:40:20;;;;;;;0.88;0.88;;;21.70;36.40;;;;;;5108784;27;47537;-28
2021/12/16 03:42:50;;;;;;;1.02;1.02;;;21.70;36.40;;;;;;5109117;27;46939;-27
2021/12/16 03:47:59;;;;;;;0.90;0.90;;;21.70;36.30;;;;;;5108654;27;46846;-28
2021/12/16 03:50:26;;;;;;;1.20;1.10;;;21.70;36.30;;;;;;5108691;27;46748;-27
2021/12/16 03:52:53;;;;;;;1.25;1.15;;;21.70;36.40;;;;;;5108880;27;46797;-27
2021/12/16 03:55:20;;;;;;;1.25;1.15;;;21.70;36.30;;;;;;5108625;27;46939;-27
2021/12/16 03:57:48;;;;;;;1.10;1.00;;;21.70;36.30;;;;;;5108709;27;48242;-27
2021/12/16 04:00:17;;;;;;;1.20;1.10;;;21.70;36.30;;;;;;5108591;27;47059;-28
2021/12/16 04:02:44;;;;;;;1.13;1.02;;;21.70;36.30;;;;;;5108828;27;46825;-27
2021/12/16 04:05:11;;;;;;;0.90;0.90;;;21.70;36.40;;;;;;5108671;27;46820;-27
2021/12/16 04:07:38;;;;;;;1.00;1.00;;;21.70;36.30;;;;;;5108532;27;48850;-28
2021/12/16 04:10:06;;;;;;;1.48;1.10;;;21.70;36.30;;;;;;5107708;27;46915;-27
2021/12/16 04:12:33;;;;;;;1.00;1.00;;;21.70;36.30;;;;;;5108672;27;46826;-27
2021/12/16 04:15:01;;;;;;;1.00;1.00;;;21.70;36.30;;;;;;5108543;27;47192;-28
2021/12/16 04:17:29;;;;;;;1.20;1.10;;;21.70;36.30;;;;;;5108465;27;48799;-28
2021/12/16 04:19:56;;;;;;;1.17;1.08;;;21.70;36.30;;;;;;5108136;27;46793;-28
2021/12/16 04:22:29;;;;;;;1.23;1.13;;;21.70;36.30;;;;;;5108508;27;46723;-27
2021/12/16 04:24:55;;;;;;;1.00;1.00;;;21.70;36.20;;;;;;5108325;27;47102;-27
2021/12/16 04:27:22;;;;;;;0.90;0.90;;;21.70;36.30;;;;;;5108336;27;48868;-27
2021/12/16 04:29:49;;;;;;;0.93;0.93;;;21.70;36.20;;;;;;5107966;27;46826;-27
2021/12/16 04:32:17;;;;;;;0.80;0.80;;;21.70;36.90;;;;;;5108101;27;47012;-27
2021/12/16 04:34:44;;;;;;;1.10;1.10;;;21.70;36.20;;;;;;5108348;27;46923;-27
2021/12/16 04:37:10;;;;;;;1.02;1.02;;;21.70;36.20;;;;;;5107827;27;47671;-27
2021/12/16 04:39:38;;;;;;;0.93;0.93;;;21.70;36.30;;;;;;5108121;27;46838;-27
2021/12/16 04:42:06;;;;;;;1.20;1.10;;;21.70;36.30;;;;;;5108219;27;46945;-27
2021/12/16 04:44:33;;;;;;;0.90;0.90;;;21.70;36.20;;;;;;5108306;27;46903;-28
2021/12/16 04:47:00;;;;;;;0.80;0.80;;;21.70;36.20;;;;;;5107559;27;47894;-27
2021/12/16 04:49:28;;;;;;;1.25;1.15;;;21.70;36.30;;;;;;5107695;27;46956;-27
2021/12/16 04:51:57;;;;;;;0.88;0.88;;;21.70;36.20;;;;;;5107759;27;46916;-28
2021/12/16 04:54:25;;;;;;;0.80;0.80;;;21.70;36.20;;;;;;5108262;27;46904;-27
2021/12/16 04:56:52;;;;;;;0.95;0.95;;;21.70;36.20;;;;;;5107103;27;47868;-28
2021/12/16 04:59:23;;;;;;;1.08;0.98;;;21.70;36.20;;;;;;5107589;27;46743;-28
2021/12/16 05:01:51;;;;;;;0.82;0.82;;;21.70;36.20;;;;;;5107573;27;47032;-28
2021/12/16 05:04:18;;;;;;;1.20;1.02;;;21.70;36.20;;;;;;5107751;27;47192;-28
2021/12/16 05:06:46;;;;;;;1.05;1.05;;;21.70;36.20;;;;;;5107203;27;49112;-27
2021/12/16 05:09:26;;;;;;;0.90;0.90;;;21.70;36.20;;;;;;5107374;27;46925;-27
2021/12/16 05:11:53;;;;;;;0.75;0.75;;;21.70;36.20;;;;;;5107424;27;46969;-28
2021/12/16 05:14:20;;;;;;;0.88;0.88;;;21.70;36.20;;;;;;5107906;27;46950;-28
2021/12/16 05:16:47;;;;;;;1.00;1.00;;;21.60;36.10;;;;;;5106868;27;48128;-28
2021/12/16 05:19:14;;;;;;;0.70;0.70;;;21.70;36.10;;;;;;5107180;27;46838;-27
2021/12/16 05:21:47;;;;;;;0.82;0.82;;;21.60;36.00;;;;;;5106284;27;46892;-28
2021/12/16 05:24:25;;;;;;;0.80;0.80;;;21.60;36.00;;;;;;5107879;27;46923;-27
2021/12/16 05:26:52;;;;;;;0.75;0.75;;;21.60;36.00;;;;;;5106767;27;48253;-27
2021/12/16 05:29:19;;;;;;;0.80;0.80;;;21.60;36.00;;;;;;5107042;27;46809;-27
2021/12/16 05:31:46;;;;;;;0.80;0.80;;;21.60;36.00;;;;;;5107187;27;46864;-27
2021/12/16 05:34:12;;;;;;;1.20;0.95;;;21.60;35.90;;;;;;5107315;27;47209;-27
2021/12/16 05:36:40;;;;;;;0.80;0.80;;;21.60;35.80;;;;;;5106995;27;47066;-27
2021/12/16 05:39:06;;;;;;;1.00;0.90;;;21.60;35.80;;;;;;5107082;27;46800;-27
2021/12/16 05:41:35;;;;;;;1.10;1.00;;;21.60;35.80;;;;;;5107191;27;46911;-28
2021/12/16 05:44:01;;;;;;;0.80;0.80;;;21.60;35.80;;;;;;5107057;27;47095;-28
2021/12/16 05:46:28;;;;;;;0.77;0.77;;;21.60;35.80;;;;;;5106569;27;47135;-27
2021/12/16 05:48:55;;;;;;;0.90;0.90;;;21.60;35.70;;;;;;5106959;27;46912;-27
2021/12/16 05:51:25;;;;;;;0.80;0.80;;;21.60;35.70;;;;;;5106838;27;46987;-28
2021/12/16 05:53:53;;;;;;;0.90;0.90;;;21.60;35.70;;;;;;5107287;27;47168;-28
2021/12/16 05:56:20;;;;;;;0.80;0.80;;;21.60;35.60;;;;;;5105972;27;47793;-27
2021/12/16 05:58:48;;;;;;;1.13;0.90;;;21.60;35.60;;;;;;5106508;27;46793;-27
2021/12/16 06:01:17;;;;;;;0.80;0.80;;;21.60;35.70;;;;;;5106730;27;46834;-27
2021/12/16 06:03:44;;;;;;;0.93;0.93;;;21.60;35.60;;;;;;5106793;27;46918;-28
2021/12/16 06:06:11;;;;;;;0.70;0.70;;;21.60;35.60;;;;;;5106382;27;47831;-28
2021/12/16 06:08:38;;;;;;;0.90;0.80;;;21.60;35.60;;;;;;5106396;27;46809;-28
2021/12/16 06:11:17;;;;;;;0.80;0.80;;;21.60;35.60;;;;;;5106319;27;46865;-28
2021/12/16 06:13:56;;;;;;;0.65;0.65;;;21.60;35.60;;;;;;5106800;27;47240;-27
2021/12/16 06:27:23;;;;;;;0.60;0.60;;;21.60;35.50;;;;;;5103485;27;46820;-28
2021/12/16 06:29:50;;;;;;;0.70;0.70;;;21.60;35.40;;;;;;5106288;27;46875;-28
2021/12/16 06:32:18;;;;;;;0.75;0.70;;;21.50;35.40;;;;;;5106372;27;46999;-27
2021/12/16 06:34:45;;;;;;;0.60;0.60;;;21.50;35.40;;;;;;5105931;27;47071;-27
2021/12/16 06:37:12;;;;;;;0.60;0.60;;;21.50;35.40;;;;;;5105979;27;47914;-28
2021/12/16 06:39:39;;;;;;;0.55;0.55;;;21.50;35.40;;;;;;5105953;27;46833;-28
2021/12/16 06:42:08;;;;;;;0.70;0.70;;;21.50;35.30;;;;;;5105935;27;46912;-27
2021/12/16 06:44:40;;;;;;;0.68;0.68;;;21.50;35.40;;;;;;5106472;27;46904;-27
2021/12/16 06:47:10;;;;;;;0.75;0.75;;;21.50;35.40;;;;;;5105916;27;49301;-27
2021/12/16 06:49:41;;;;;;;0.70;0.70;;;21.50;35.40;;;;;;5105867;27;46876;-28
2021/12/16 06:52:11;;;;;;;0.70;0.70;;;21.50;35.40;;;;;;5106088;27;46983;-27
2021/12/16 06:54:51;;;;;;;0.90;0.90;;;21.50;35.40;;;;;;5106474;27;47023;-18
2021/12/16 06:57:22;;;;;;;1.88;1.67;;;21.50;35.40;;;;;;5105593;27;46867;-28
2021/12/16 06:59:55;;;;;;;2.22;1.90;;;21.50;35.50;;;;;;5103662;27;47419;-28
2021/12/16 07:02:40;;;;;;;2.85;1.90;;;21.50;35.40;;;;;;5085710;28;46934;-28
2021/12/16 07:05:09;;;;;;;1.80;1.70;;;21.50;35.40;;;;;;5085115;28;47185;-28
2021/12/16 07:07:36;;;;;;;2.63;2.05;;;21.50;35.40;;;;;;5085330;28;47848;-28
2021/12/16 07:10:03;;;;;;;2.10;1.90;;;21.50;35.50;;;;;;5084779;28;46990;-27
2021/12/16 07:12:36;;;;;;;2.10;1.90;;;21.50;35.50;;;;;;5085628;28;46792;-28
2021/12/16 07:15:04;;;;;;;2.75;1.90;;;21.50;35.50;;;;;;5085221;28;46966;-28
2021/12/16 07:17:31;;;;;;;3.63;2.22;;;21.50;35.50;;;;;;5085342;28;49058;-28
2021/12/16 07:19:57;;;;;;;2.00;1.80;;;21.50;35.50;;;;;;5084752;28;47038;-28
2021/12/16 07:22:25;;;;;;;2.45;2.25;;;21.50;35.50;;;;;;5084877;28;46802;-27
2021/12/16 07:24:52;;;;;;;3.17;2.15;;;21.50;35.50;;;;;;5085471;28;46886;-28
2021/12/16 07:27:19;;;;;;;3.17;2.20;;;21.50;35.50;;;;;;5084879;28;48013;-27
2021/12/16 07:29:45;;;;;;;2.75;2.20;;;21.50;35.50;;;;;;5099013;27;47177;-27
2021/12/16 07:32:12;;;;;;;4.05;2.50;;;21.50;35.50;;;;;;5084984;28;46817;-27
2021/12/16 07:34:39;;;;;;;2.58;2.38;;;21.50;35.60;;;;;;5084841;28;46896;-27
2021/12/16 07:37:08;;;;;;;3.15;2.42;;;21.50;35.50;;;;;;5084395;28;47724;-28
2021/12/16 07:39:40;;;;;;;3.33;2.58;;;21.50;35.50;;;;;;5095928;27;46971;-19
2021/12/16 07:42:08;;;;;;;2.95;2.42;;;21.50;35.50;;;;;;5097566;27;46832;-19
2021/12/16 07:44:35;;;;;;;3.00;2.70;;;21.50;35.50;;;;;;5104051;27;47263;-17
2021/12/16 07:47:04;;;;;;;3.85;2.58;;;21.50;35.60;;;;;;5106717;27;48882;-17
2021/12/16 07:49:32;;;;;;;3.80;2.92;;;21.50;35.60;;;;;;5108889;27;46834;-17
2021/12/16 07:51:59;;;;;;;2.90;2.70;;;21.50;35.60;;;;;;5108923;27;46848;-17
2021/12/16 07:54:26;;;;;;;4.43;2.75;;;21.50;35.60;;;;;;5109178;27;46896;-18
2021/12/16 07:56:55;;;;;;;2.88;2.33;;;21.50;35.50;;;;;;5108230;27;49051;-17
2021/12/16 07:59:22;;;;;;;3.55;2.42;;;21.50;35.60;;;;;;5108747;27;47259;-18
2021/12/16 08:01:48;;;;;;;3.10;2.80;;;21.50;35.50;;;;;;5108444;27;47027;-17
2021/12/16 08:04:20;;;;;;;3.47;2.70;;;21.50;35.50;;;;;;5102980;27;46914;-17
2021/12/16 08:06:47;;;;;;;3.92;2.97;;;21.60;35.60;;;;;;5097615;27;48374;-17
2021/12/16 08:09:14;;;;;;;2.95;2.63;;;21.50;35.50;;;;;;5096352;27;46875;-18
2021/12/16 08:11:41;;;;;;;3.55;3.00;;;21.60;35.60;;;;;;5096488;27;47092;-17
2021/12/16 08:14:09;;;;;;;3.45;3.05;;;21.60;35.60;;;;;;5098151;27;47040;-19
2021/12/16 08:16:36;;;;;;;4.22;3.10;;;21.60;35.60;;;;;;5096540;27;47848;-18
2021/12/16 08:19:03;;;;;;;3.30;2.95;;;21.60;35.70;;;;;;5095972;27;47095;-18
2021/12/16 08:21:30;;;;;;;4.07;3.33;;;21.60;35.70;;;;;;5095579;27;46833;-17
2021/12/16 08:23:57;;;;;;;4.40;3.30;;;21.50;35.60;;;;;;5096988;27;47124;-18
2021/12/16 08:26:24;;;;;;;9.43;3.22;;;21.60;35.60;;;;;;5097228;27;48128;-18
2021/12/16 08:28:50;;;;;;;4.35;3.90;;;21.60;35.60;;;;;;5095825;27;46819;-17
2021/12/16 08:31:19;;;;;;;3.50;3.20;;;21.60;35.60;;;;;;5098434;27;46822;-17
2021/12/16 08:33:46;;;;;;;4.80;3.08;;;21.60;35.60;;;;;;5106448;27;47009;-18
2021/12/16 08:36:13;;;;;;;6.45;3.45;;;21.60;35.60;;;;;;5107780;27;48842;-17
2021/12/16 08:38:40;;;;;;;4.78;3.30;;;21.60;35.60;;;;;;5108159;27;47026;-18
2021/12/16 08:41:11;;;;;;;4.13;3.30;;;21.60;35.60;;;;;;5107918;27;46952;-18
2021/12/16 08:43:39;;;;;;;4.30;3.38;;;21.60;35.60;;;;;;5108398;27;47145;-18
2021/12/16 08:46:07;;;;;;;3.80;3.25;;;21.60;35.60;;;;;;5107750;27;48081;-17
2021/12/16 08:48:35;;;;;;;5.72;3.30;;;21.60;35.60;;;;;;5107927;27;46995;-17
2021/12/16 08:51:01;;;;;;;9.90;3.70;;;21.60;35.60;;;;;;5107562;27;46873;-17
2021/12/16 08:53:28;;;;;;;6.50;3.35;;;21.60;35.60;;;;;;5107740;27;46907;-18
2021/12/16 08:55:55;;;;;;;4.47;3.20;;;21.60;35.50;;;;;;5107072;27;48925;-17
2021/12/16 08:58:22;;;;;;;7.43;3.55;;;21.60;35.60;;;;;;5107715;27;46990;-18
2021/12/16 09:00:51;;;;;;;4.63;3.42;;;21.60;35.50;;;;;;5106624;27;47054;-17
2021/12/16 09:03:18;;;;;;;3.97;2.88;;;21.70;35.60;;;;;;5107018;27;47262;-18
2021/12/16 09:05:46;;;;;;;7.60;3.45;;;21.70;35.50;;;;;;5097179;27;47902;-19
2021/12/16 09:08:13;;;;;;;5.80;3.38;;;21.70;35.50;;;;;;5096945;27;47092;-18
2021/12/16 09:10:40;;;;;;;7.43;3.30;;;21.70;35.50;;;;;;5095439;27;47017;-18
2021/12/16 09:13:09;;;;;;;4.40;3.00;;;21.70;35.50;;;;;;5097616;27;46940;-18
2021/12/16 09:15:38;;;;;;;5.38;3.22;;;21.70;35.30;;;;;;5096780;27;46907;-17
2021/12/16 09:18:05;;;;;;;5.15;3.13;;;21.70;35.50;;;;;;5089975;27;47165;-18
2021/12/16 09:20:32;;;;;;;5.18;3.17;;;21.70;35.50;;;;;;5096201;27;46932;-17
2021/12/16 09:23:00;;;;;;;4.45;3.40;;;21.70;35.40;;;;;;5097446;27;47018;-18
2021/12/16 09:25:27;;;;;;;4.30;3.25;;;21.70;35.60;;;;;;5086000;28;49570;-17
2021/12/16 09:27:54;;;;;;;8.85;3.85;;;21.70;35.50;;;;;;5094359;27;48594;-18
2021/12/16 09:30:26;;;;;;;5.38;3.05;;;21.70;35.50;;;;;;5092162;27;47016;-18
2021/12/16 09:32:56;;;;;;;11.10;2.90;;;21.70;35.60;;;;;;5096567;27;46871;-19
2021/12/16 09:35:22;;;;;;;6.55;2.58;;;21.70;35.10;;;;;;5096763;27;48851;-18
2021/12/16 09:37:49;;;;;;;3.20;2.65;;;21.50;34.30;;;;;;5095769;27;46890;-18
2021/12/16 09:40:21;;;;;;;3.00;2.70;;;21.40;33.20;;;;;;5097720;27;46983;-17
2021/12/16 09:42:49;;;;;;;6.50;3.33;;;21.30;32.90;;;;;;5097441;27;46854;-17
2021/12/16 09:45:16;;;;;;;4.63;4.22;;;21.20;33.90;;;;;;5092069;27;47827;-19
2021/12/16 09:47:44;;;;;;;9.98;7.90;;;21.20;33.40;;;;;;5093744;27;47010;-18
2021/12/16 09:50:12;;;;;;;6.57;3.63;;;21.10;33.10;;;;;;5091397;27;46966;-18
2021/12/16 09:52:39;;;;;;;3.50;3.20;;;21.10;33.60;;;;;;5100103;27;46890;-18
2021/12/16 09:55:06;;;;;;;4.10;3.70;;;21.00;33.60;;;;;;5091628;27;46869;-18
2021/12/16 09:57:34;;;;;;;4.07;3.78;;;21.00;33.20;;;;;;5085986;28;47182;-17
2021/12/16 10:00:01;;;;;;;5.78;4.22;;;21.10;33.20;;;;;;5085178;28;46984;-17
2021/12/16 10:02:29;;;;;;;4.25;3.78;;;21.00;32.90;;;;;;5086422;28;46865;-18
2021/12/16 10:04:55;;;;;;;4.90;4.40;;;21.00;32.90;;;;;;5085808;28;48769;-19
2021/12/16 10:07:24;;;;;;;4.40;4.00;;;21.00;33.30;;;;;;5085790;28;47234;-17
2021/12/16 10:09:52;;;;;;;4.35;4.03;;;21.10;33.40;;;;;;5085800;28;46900;-18
2021/12/16 10:12:23;;;;;;;4.90;4.50;;;21.10;33.00;;;;;;5086158;28;47147;-17
2021/12/16 10:15:06;;;;;;;4.25;3.85;;;21.10;33.00;;;;;;5085947;28;48470;-18
2021/12/16 10:17:33;;;;;;;5.03;4.53;;;21.10;33.30;;;;;;5085884;28;46823;-18
2021/12/16 10:20:10;;;;;;;5.57;4.63;;;21.10;32.90;;;;;;5085789;28;46866;-18
2021/12/16 10:22:40;;;;;;;6.35;3.70;;;21.10;32.70;;;;;;5086325;28;46944;-18
2021/12/16 10:25:23;;;;;;;5.28;2.95;;;21.00;33.00;;;;;;5085653;28;48026;-18
2021/12/16 10:27:56;;;;;;;12.55;8.48;;;20.90;32.90;;;;;;5085562;28;46821;-18
2021/12/16 10:30:24;;;;;;;6.80;4.68;;;20.80;32.50;;;;;;5085955;27;46994;-18
2021/12/16 10:32:51;;;;;;;5.43;4.93;;;20.60;32.80;;;;;;5086088;28;47036;-18
2021/12/16 10:35:19;;;;;;;6.50;5.72;;;20.60;32.90;;;;;;5085241;27;46873;-18
2021/12/16 10:37:50;;;;;;;4.88;4.30;;;20.60;33.00;;;;;;5085844;28;46970;-17
2021/12/16 10:40:27;;;;;;;5.35;4.85;;;20.60;33.10;;;;;;5085627;28;46748;-18
2021/12/16 10:42:54;;;;;;;5.30;4.90;;;20.70;33.30;;;;;;5085694;28;46805;-17
2021/12/16 10:45:30;;;;;;;5.15;4.20;;;20.70;33.40;;;;;;5085394;28;46835;-17
2021/12/16 10:48:21;;;;;;;5.15;4.20;;;20.80;33.40;;;;;;5085177;28;47243;-17
2021/12/16 10:51:09;;;;;;;4.97;4.57;;;20.80;33.50;;;;;;5085368;28;46867;-17
2021/12/16 10:54:05;;;;;;;4.97;3.92;;;20.80;33.30;;;;;;5085860;28;46941;-19
2021/12/16 10:56:34;;;;;;;6.50;3.50;;;20.90;33.10;;;;;;5084733;28;46834;-18
2021/12/16 10:59:03;;;;;;;4.63;4.20;;;20.80;33.10;;;;;;5085153;28;46748;-17
2021/12/16 11:01:46;;;;;;;5.05;4.55;;;20.80;32.70;;;;;;5085019;28;47001;-18
2021/12/16 11:04:16;;;;;;;14.70;10.02;;;20.70;32.70;;;;;;5085548;28;46932;-18
2021/12/16 11:06:47;;;;;;;13.98;9.32;;;20.60;33.30;;;;;;5084974;28;47793;-18
2021/12/16 11:09:44;;;;;;;5.72;3.95;;;20.50;33.10;;;;;;5085459;28;46805;-18
2021/12/16 11:12:14;;;;;;;6.68;2.80;;;20.30;33.40;;;;;;5085391;28;46907;-18
2021/12/16 11:14:42;;;;;;;5.78;2.60;;;20.10;33.90;;;;;;5085624;28;46861;-18
2021/12/16 11:17:11;;;;;;;3.63;2.17;;;20.00;33.90;;;;;;5084946;28;48969;-18
2021/12/16 11:19:44;;;;;;;2.92;2.00;;;19.90;34.30;;;;;;5084591;27;47427;-18
2021/12/16 11:22:11;;;;;;;3.53;2.17;;;19.80;34.20;;;;;;5088545;27;46963;-17
2021/12/16 11:24:38;;;;;;;2.67;1.88;;;19.70;34.60;;;;;;5088913;27;46953;-18
2021/12/16 11:27:32;;;;;;;3.35;2.10;;;19.60;34.80;;;;;;5088438;27;47064;-17
2021/12/16 11:30:00;;;;;;;2.13;2.03;;;19.50;35.10;;;;;;5088378;27;46912;-18
2021/12/16 11:32:40;;;;;;;3.88;2.50;;;19.50;35.00;;;;;;5106595;27;46992;-17
2021/12/16 11:35:32;;;;;;;4.60;4.20;;;19.40;35.30;;;;;;5100197;27;46882;-17
2021/12/16 11:38:01;;;;;;;4.28;3.90;;;19.40;35.60;;;;;;5088779;27;49058;-18
2021/12/16 11:40:28;;;;;;;6.65;4.60;;;19.60;35.40;;;;;;5088453;27;46902;-18
2021/12/16 11:43:00;;;;;;;4.53;4.13;;;19.70;35.10;;;;;;5088297;27;46860;-18
2021/12/16 11:45:37;;;;;;;5.18;4.78;;;19.80;35.00;;;;;;5088298;27;46834;-18
2021/12/16 11:48:28;;;;;;;7.63;6.43;;;19.80;35.00;;;;;;5090678;27;47829;-18
2021/12/16 11:51:05;;;;;;;8.18;7.38;;;19.90;34.90;;;;;;5087288;27;46942;-17
2021/12/16 11:53:36;;;;;;;8.18;6.30;;;20.00;34.90;;;;;;5087442;27;47076;-18
2021/12/16 11:56:04;;;;;;;7.85;6.75;;;20.00;34.70;;;;;;5087267;27;47270;-18
2021/12/16 11:58:31;;;;;;;8.05;6.93;;;20.00;34.80;;;;;;5088277;27;48889;-18
2021/12/16 12:00:59;;;;;;;5.90;5.40;;;20.10;34.80;;;;;;5087883;27;47636;-18
2021/12/16 12:03:33;;;;;;;6.05;5.43;;;20.10;34.70;;;;;;5088319;27;46885;-18
2021/12/16 12:06:00;;;;;;;6.35;5.28;;;20.10;34.60;;;;;;5088137;27;46826;-17
2021/12/16 12:08:28;;;;;;;9.15;8.35;;;20.10;35.00;;;;;;5087833;27;47931;-18
2021/12/16 12:10:59;;;;;;;6.47;5.88;;;20.10;34.90;;;;;;5087570;27;46939;-17
2021/12/16 12:13:27;;;;;;;10.30;3.88;;;20.10;35.60;;;;;;5088431;27;46881;-18
2021/12/16 12:15:56;;;;;;;3.40;2.97;;;20.20;35.20;;;;;;5087468;27;46822;-18
2021/12/16 12:18:43;;;;;;;5.20;3.00;;;20.20;34.90;;;;;;5086600;28;48129;-18
2021/12/16 12:21:18;;;;;;;7.07;4.93;;;20.20;35.20;;;;;;5086026;27;46857;-18
2021/12/16 12:23:45;;;;;;;9.55;4.63;;;20.30;35.10;;;;;;5086963;28;46802;-18
2021/12/16 12:26:16;;;;;;;9.27;4.90;;;20.30;35.20;;;;;;5105371;27;47092;-17
2021/12/16 12:28:42;;;;;;;5.97;4.95;;;20.40;35.40;;;;;;5107977;27;48013;-18
2021/12/16 12:31:09;;;;;;;5.90;4.78;;;20.40;35.00;;;;;;5107068;27;46840;-18
2021/12/16 12:33:36;;;;;;;8.35;7.53;;;20.40;34.80;;;;;;5108297;27;46750;-19
2021/12/16 12:36:05;;;;;;;13.98;9.13;;;20.40;34.60;;;;;;5107453;27;46990;-18
2021/12/16 12:38:31;;;;;;;9.45;8.52;;;20.50;34.70;;;;;;5107785;27;47029;-18
2021/12/16 12:40:58;;;;;;;10.93;9.02;;;20.50;34.50;;;;;;5091783;27;46953;-18
2021/12/16 12:43:25;;;;;;;11.77;8.70;;;20.60;34.60;;;;;;5087118;28;47020;-19
2021/12/16 12:45:52;;;;;;;12.00;9.98;;;20.70;34.60;;;;;;5087167;27;46852;-18
2021/12/16 12:48:20;;;;;;;10.52;9.20;;;20.90;34.80;;;;;;5087027;27;47877;-18
2021/12/16 12:50:48;;;;;;;14.27;9.00;;;21.00;35.20;;;;;;5087002;27;47206;-17
2021/12/16 12:53:20;;;;;;;21.90;19.67;;;21.20;35.10;;;;;;5087088;27;46901;-17
2021/12/16 12:55:49;;;;;;;19.33;12.85;;;21.20;34.90;;;;;;5086721;27;47105;-18
2021/12/16 12:58:17;;;;;;;12.32;10.27;;;21.30;34.70;;;;;;5085637;27;48063;-19
2021/12/16 13:00:46;;;;;;;14.38;12.88;;;21.40;35.00;;;;;;5086729;28;46868;-17
2021/12/16 13:03:24;;;;;;;12.30;10.63;;;21.40;34.70;;;;;;5087327;27;47000;-17
2021/12/16 13:05:51;;;;;;;10.85;9.82;;;21.40;34.70;;;;;;5086755;28;46955;-18
2021/12/16 13:08:24;;;;;;;12.73;8.60;;;21.40;34.80;;;;;;5087159;27;48137;-18
2021/12/16 13:10:51;;;;;;;9.13;8.15;;;21.40;34.80;;;;;;5086770;27;47173;-17
2021/12/16 13:13:33;;;;;;;10.32;8.13;;;21.40;34.60;;;;;;5087297;27;46992;-18
2021/12/16 13:16:24;;;;;;;8.18;7.38;;;21.40;34.70;;;;;;5086906;27;46950;-19
2021/12/16 13:24:45;;;;;;;8.23;7.03;;;21.40;35.40;;;;;;5084199;28;46887;-18
2021/12/16 13:27:24;;;;;;;8.90;7.03;;;21.40;34.70;;;;;;5086805;28;48036;-17
2021/12/16 13:30:07;;;;;;;9.88;6.88;;;21.40;34.80;;;;;;5086903;27;47896;-17
2021/12/16 13:32:42;;;;;;;7.40;6.70;;;21.40;34.80;;;;;;5086612;27;47485;-17
2021/12/16 13:35:21;;;;;;;9.10;7.18;;;21.40;34.80;;;;;;5086567;27;46774;-18
2021/12/16 13:37:49;;;;;;;7.35;6.47;;;21.40;34.80;;;;;;5086827;27;46911;-18
2021/12/16 13:40:20;;;;;;;7.10;6.50;;;21.40;34.90;;;;;;5086458;27;46894;-17
2021/12/16 13:42:53;;;;;;;8.10;6.63;;;21.40;34.90;;;;;;5085712;27;46913;-18
2021/12/16 13:45:25;;;;;;;6.63;5.95;;;21.40;34.90;;;;;;5086615;27;47151;-18
2021/12/16 14:03:16;;;;;;;6.10;5.50;;;21.40;34.80;;;;;;5207246;27;46774;-17
2021/12/16 14:05:56;;;;;;;8.48;5.80;;;21.50;35.00;;;;;;5186243;27;46738;-17
2021/12/16 14:08:35;;;;;;;5.57;4.95;;;21.50;35.00;;;;;;5186290;27;47027;-18
2021/12/16 14:11:16;;;;;;;5.72;5.15;;;21.50;35.00;;;;;;5184853;27;47938;-17
2021/12/16 14:16:35;;;;;;;5.55;5.00;;;21.50;35.00;;;;;;5182120;27;47109;-16
2021/12/16 14:41:52;;;;;;;6.95;4.57;;;22.00;35.40;;;;;;5075235;27;47637;-26
2021/12/16 14:47:29;;;;;;;8.55;4.28;;;22.00;35.00;;;;;;5067803;27;47002;-26
2021/12/16 14:49:56;;;;;;;8.10;4.68;;;22.00;35.00;;;;;;5110462;27;47063;-27
2021/12/16 14:52:25;;;;;;;7.47;4.43;;;22.00;35.30;;;;;;5123142;27;46997;-27
2021/12/16 14:54:54;;;;;;;7.20;3.90;;;22.10;35.00;;;;;;5121902;27;48076;-26
2021/12/16 14:57:23;;;;;;;5.25;4.20;;;22.20;34.80;;;;;;5123093;27;46992;-26
2021/12/16 14:59:49;;;;;;;5.13;3.90;;;22.30;34.70;;;;;;5122921;27;46969;-27
2021/12/16 15:02:17;;;;;;;4.85;3.95;;;22.30;34.60;;;;;;5123271;27;47249;-26
2021/12/16 15:04:44;;;;;;;5.03;4.03;;;22.40;34.50;;;;;;5122480;27;49005;-27
2021/12/16 15:07:12;;;;;;;7.88;3.88;;;22.50;34.40;;;;;;5122700;27;47068;-27
2021/12/16 15:09:41;;;;;;;5.15;3.33;;;22.50;34.30;;;;;;5122671;27;46915;-26
2021/12/16 15:12:13;;;;;;;3.70;3.40;;;22.50;34.20;;;;;;5122764;27;47154;-26
2021/12/16 15:14:57;;;;;;;4.20;3.33;;;22.50;34.20;;;;;;5122622;27;48796;-26
2021/12/16 15:17:44;;;;;;;4.32;3.40;;;22.50;34.10;;;;;;5122367;27;47060;-27
2021/12/16 15:32:58;;;;;;;5.50;3.60;;;22.60;33.90;;;;;;5119733;27;46929;-26
2021/12/16 15:37:38;;;;;;;3.92;3.50;;;22.70;33.90;;;;;;5119579;27;48045;-27
2021/12/16 15:40:15;;;;;;;3.55;3.25;;;22.70;33.90;;;;;;5122014;27;47169;-27
2021/12/16 15:42:47;;;;;;;4.45;3.05;;;22.70;33.80;;;;;;5122439;27;46800;-27
2021/12/16 15:45:17;;;;;;;4.22;3.53;;;22.70;33.80;;;;;;5118579;27;47057;-27
2021/12/16 15:47:45;;;;;;;3.40;3.10;;;22.70;33.80;;;;;;5086918;28;48837;-27